Time;durP1;ratioP1;P1;durP2;ratioP2;P2;SDS_P1;SDS_P2;PMS_P1;PMS_P2;Temp;Humidity;BMP_temperature;BMP_pressure;BME280_temperature;BME280_humidity;BME280_pressure;Samples;Min_cycle;Max_cycle;Signal;HPM_P1;HPM_P2
2022/04/23 00:01:32;;;;;;;5.37;4.77;;;10.40;99.90;;;;;;4867554;29;20238;-66
2022/04/23 00:04:01;;;;;;;7.50;5.53;;;10.30;99.90;;;;;;4860869;29;20248;-67
2022/04/23 00:06:31;;;;;;;8.67;5.90;;;10.30;99.90;;;;;;4867416;29;20724;-66
2022/04/23 00:09:00;;;;;;;9.43;5.60;;;10.20;99.90;;;;;;4870684;29;20708;-66
2022/04/23 00:11:28;;;;;;;7.03;5.60;;;10.10;99.90;;;;;;4867263;29;20818;-66
2022/04/23 00:13:56;;;;;;;8.43;5.93;;;10.10;99.90;;;;;;4863113;29;20239;-66
2022/04/23 00:16:25;;;;;;;6.90;5.07;;;10.10;99.90;;;;;;4872356;29;20323;-66
2022/04/23 00:18:53;;;;;;;6.77;5.17;;;10.10;99.90;;;;;;4865932;29;20259;-66
2022/04/23 00:21:21;;;;;;;8.47;5.20;;;10.10;99.90;;;;;;4867284;29;20246;-66
2022/04/23 00:23:51;;;;;;;6.87;5.27;;;10.00;99.90;;;;;;4866710;29;20322;-66
2022/04/23 00:26:19;;;;;;;6.93;5.50;;;10.00;99.90;;;;;;4871339;29;20238;-66
2022/04/23 00:28:47;;;;;;;6.50;5.50;;;10.00;99.90;;;;;;4872780;29;20645;-66
2022/04/23 00:31:15;;;;;;;6.93;5.43;;;9.90;99.90;;;;;;4870275;29;20250;-66
2022/04/23 00:33:43;;;;;;;6.83;5.10;;;9.80;99.90;;;;;;4873775;29;20710;-66
2022/04/23 00:36:11;;;;;;;6.70;5.10;;;9.80;99.90;;;;;;4869400;29;22030;-66
2022/04/23 00:38:42;;;;;;;6.33;4.67;;;9.80;99.90;;;;;;4877400;29;20707;-67
2022/04/23 00:41:43;;;;;;;7.40;5.13;;;9.70;99.90;;;;;;4869992;29;20259;-66
2022/04/23 00:44:00;;;;;;;7.57;5.07;;;9.70;99.90;;;;;;4872371;29;20334;-67
2022/04/23 00:46:29;;;;;;;6.20;4.80;;;9.70;99.90;;;;;;4874365;29;20718;-67
2022/04/23 00:48:58;;;;;;;6.90;5.03;;;9.60;99.90;;;;;;4869894;29;20584;-66
2022/04/23 00:51:27;;;;;;;7.90;5.23;;;9.50;99.90;;;;;;4866694;29;20747;-66
2022/04/23 00:53:57;;;;;;;6.10;4.90;;;9.40;99.90;;;;;;4865400;29;20717;-66
2022/04/23 00:56:26;;;;;;;6.83;5.10;;;9.40;99.90;;;;;;4868207;29;20299;-66
2022/04/23 00:58:55;;;;;;;6.20;5.40;;;9.30;99.90;;;;;;4867667;29;20235;-67
2022/04/23 01:01:24;;;;;;;6.40;5.23;;;9.40;99.90;;;;;;4866698;29;20269;-66
2022/04/23 01:03:53;;;;;;;7.20;5.27;;;9.30;99.90;;;;;;4858785;29;20243;-66
2022/04/23 01:06:23;;;;;;;9.40;5.60;;;9.20;99.90;;;;;;4867323;29;20243;-66
2022/04/23 01:08:51;;;;;;;7.13;5.70;;;9.20;99.90;;;;;;4862358;29;20265;-67
2022/04/23 01:11:20;;;;;;;7.53;5.50;;;9.20;99.90;;;;;;4866379;29;20266;-66
2022/04/23 01:13:51;;;;;;;9.70;5.57;;;9.20;99.90;;;;;;4862023;29;20641;-66
2022/04/23 01:16:20;;;;;;;7.17;5.37;;;9.20;99.90;;;;;;4873913;29;20238;-66
2022/04/23 01:18:48;;;;;;;6.17;5.37;;;9.10;99.90;;;;;;4868080;29;20587;-67
2022/04/23 01:21:17;;;;;;;8.73;5.80;;;9.10;99.90;;;;;;4866295;29;20244;-66
2022/04/23 01:23:48;;;;;;;6.70;5.63;;;9.00;99.90;;;;;;4864519;29;20251;-66
2022/04/23 01:26:25;;;;;;;6.70;5.67;;;9.00;99.90;;;;;;4868013;29;20274;-66
2022/04/23 01:28:54;;;;;;;6.20;5.60;;;9.00;99.90;;;;;;4871658;29;20324;-67
2022/04/23 01:31:22;;;;;;;6.53;5.20;;;9.00;99.90;;;;;;4869353;29;20234;-66
2022/04/23 01:33:50;;;;;;;7.83;6.17;;;8.90;99.90;;;;;;4871815;29;20341;-66
2022/04/23 01:36:20;;;;;;;9.27;6.00;;;8.90;99.90;;;;;;4868157;29;20245;-66
2022/04/23 01:38:48;;;;;;;7.63;5.57;;;9.00;99.90;;;;;;4871539;29;20235;-67
2022/04/23 01:41:16;;;;;;;9.43;6.47;;;9.00;99.90;;;;;;4870245;29;20632;-66
2022/04/23 01:43:44;;;;;;;8.93;6.37;;;8.90;99.90;;;;;;4872424;29;20691;-66
2022/04/23 01:46:13;;;;;;;6.63;5.77;;;8.90;99.90;;;;;;4872224;29;20241;-66
2022/04/23 01:48:41;;;;;;;8.20;6.43;;;8.90;99.90;;;;;;4872353;29;20244;-66
2022/04/23 01:51:10;;;;;;;8.03;6.30;;;9.00;99.90;;;;;;4869120;29;20717;-66
2022/04/23 01:53:39;;;;;;;7.00;6.30;;;8.90;99.90;;;;;;4873187;29;20779;-66
2022/04/23 01:56:11;;;;;;;8.80;6.33;;;8.90;99.90;;;;;;4866854;29;20245;-66
2022/04/23 01:58:39;;;;;;;8.37;6.80;;;8.80;99.90;;;;;;4869479;29;20329;-66
2022/04/23 02:01:07;;;;;;;9.43;6.93;;;8.90;99.90;;;;;;4865880;29;20370;-66
2022/04/23 02:03:35;;;;;;;8.07;6.30;;;8.80;99.90;;;;;;4861432;29;20652;-66
2022/04/23 02:06:04;;;;;;;8.47;6.90;;;8.80;99.90;;;;;;4872166;29;20238;-66
2022/04/23 02:08:32;;;;;;;8.30;6.70;;;8.80;99.90;;;;;;4873407;29;20239;-66
2022/04/23 02:11:01;;;;;;;9.07;7.43;;;8.70;99.90;;;;;;4869075;29;20265;-66
2022/04/23 02:13:30;;;;;;;9.10;6.83;;;8.60;99.90;;;;;;4872927;29;20249;-66
2022/04/23 02:15:59;;;;;;;8.80;7.20;;;8.60;99.90;;;;;;4872809;29;20249;-66
2022/04/23 02:18:28;;;;;;;9.13;7.23;;;8.60;99.90;;;;;;4867888;29;20264;-66
2022/04/23 02:20:56;;;;;;;9.83;7.13;;;8.50;99.90;;;;;;4869307;29;20250;-66
2022/04/23 02:23:24;;;;;;;11.73;8.13;;;8.50;99.90;;;;;;4869080;29;20324;-66
2022/04/23 02:25:52;;;;;;;10.33;7.60;;;8.50;99.90;;;;;;4874191;29;20269;-66
2022/04/23 02:28:21;;;;;;;9.87;8.00;;;8.50;99.90;;;;;;4878661;29;20621;-66
2022/04/23 02:30:50;;;;;;;12.50;8.53;;;8.40;99.90;;;;;;4869056;29;20325;-66
2022/04/23 02:33:19;;;;;;;10.50;8.00;;;8.40;99.90;;;;;;4862301;29;20242;-66
2022/04/23 02:35:47;;;;;;;11.17;8.63;;;8.30;99.90;;;;;;4871148;29;20238;-66
2022/04/23 02:38:17;;;;;;;9.73;8.23;;;8.20;99.90;;;;;;4864744;29;20244;-66
2022/04/23 02:40:45;;;;;;;10.47;8.50;;;8.20;99.90;;;;;;4868930;29;20246;-66
2022/04/23 02:43:13;;;;;;;11.07;8.27;;;8.20;99.90;;;;;;4864756;29;20242;-66
2022/04/23 02:45:42;;;;;;;13.13;9.30;;;8.20;99.90;;;;;;4869360;29;20337;-66
2022/04/23 02:48:11;;;;;;;11.70;8.43;;;8.20;99.90;;;;;;4875390;29;20824;-66
2022/04/23 02:50:40;;;;;;;13.67;9.50;;;8.10;99.90;;;;;;4871797;29;20237;-66
2022/04/23 02:53:09;;;;;;;12.67;9.63;;;8.10;99.90;;;;;;4879646;29;20341;-66
2022/04/23 02:55:39;;;;;;;13.67;9.50;;;8.10;99.90;;;;;;4868385;29;20231;-66
2022/04/23 02:58:08;;;;;;;13.27;9.60;;;8.00;99.90;;;;;;4871857;29;20249;-66
2022/04/23 03:00:38;;;;;;;13.53;9.73;;;7.90;99.90;;;;;;4868246;29;20246;-66
2022/04/23 03:03:09;;;;;;;12.17;9.87;;;7.90;99.90;;;;;;4863819;29;20238;-66
2022/04/23 03:05:42;;;;;;;13.60;10.37;;;7.90;99.90;;;;;;4868840;29;20333;-66
2022/04/23 03:08:11;;;;;;;11.27;9.50;;;7.90;99.90;;;;;;4864143;29;20326;-66
2022/04/23 03:10:40;;;;;;;12.20;10.20;;;8.00;99.90;;;;;;4868258;29;20239;-66
2022/04/23 03:13:09;;;;;;;13.47;10.23;;;8.00;99.90;;;;;;4863762;29;20246;-66
2022/04/23 03:15:38;;;;;;;14.60;10.57;;;7.90;99.90;;;;;;4868731;29;20699;-66
2022/04/23 03:18:09;;;;;;;13.93;10.20;;;7.90;99.90;;;;;;4874962;29;20709;-66
2022/04/23 03:20:38;;;;;;;13.93;10.90;;;7.90;99.90;;;;;;4868108;29;20294;-66
2022/04/23 03:23:06;;;;;;;15.07;11.30;;;7.80;99.90;;;;;;4866016;29;20332;-66
2022/04/23 03:25:34;;;;;;;12.50;10.57;;;7.80;99.90;;;;;;4867938;29;20290;-66
2022/04/23 03:28:03;;;;;;;17.53;11.73;;;7.80;99.90;;;;;;4864882;29;20718;-66
2022/04/23 03:30:31;;;;;;;15.50;11.30;;;7.70;99.90;;;;;;4868004;29;20250;-66
2022/04/23 03:33:00;;;;;;;16.27;12.37;;;7.80;99.90;;;;;;4878078;29;20250;-66
2022/04/23 03:35:29;;;;;;;16.87;11.73;;;7.70;99.90;;;;;;4868618;29;20238;-66
2022/04/23 03:37:59;;;;;;;20.10;12.07;;;7.70;99.90;;;;;;4861971;29;20274;-66
2022/04/23 03:40:27;;;;;;;14.10;10.67;;;7.70;99.90;;;;;;4870818;29;20238;-66
2022/04/23 03:42:55;;;;;;;15.67;11.53;;;7.70;99.90;;;;;;4878916;29;20293;-66
2022/04/23 03:45:24;;;;;;;14.10;11.00;;;7.70;99.90;;;;;;4869240;29;20238;-66
2022/04/23 03:47:52;;;;;;;16.90;12.20;;;7.70;99.90;;;;;;4873689;29;20699;-66
2022/04/23 03:50:21;;;;;;;18.30;12.20;;;7.60;99.90;;;;;;4869847;29;20710;-66
2022/04/23 03:52:50;;;;;;;16.13;12.03;;;7.60;99.90;;;;;;4863180;29;20241;-66
2022/04/23 03:55:18;;;;;;;16.27;12.13;;;7.60;99.90;;;;;;4869627;29;20286;-66
2022/04/23 03:57:48;;;;;;;17.97;12.50;;;7.60;99.90;;;;;;4863852;29;20242;-66
2022/04/23 04:00:19;;;;;;;16.47;13.07;;;7.60;99.90;;;;;;4870278;29;20284;-66
2022/04/23 04:02:48;;;;;;;19.10;13.83;;;7.60;99.90;;;;;;4861150;29;20238;-66
2022/04/23 04:05:18;;;;;;;17.47;13.27;;;7.60;99.90;;;;;;4870493;29;20237;-66
2022/04/23 04:07:48;;;;;;;19.10;13.20;;;7.60;99.90;;;;;;4859672;29;20242;-66
2022/04/23 04:10:20;;;;;;;17.50;13.37;;;7.50;99.90;;;;;;4867742;29;20242;-66
2022/04/23 04:12:49;;;;;;;19.17;13.40;;;7.50;99.90;;;;;;4878007;29;20242;-66
2022/04/23 04:15:20;;;;;;;16.67;12.77;;;7.60;99.90;;;;;;4866906;29;20606;-66
2022/04/23 04:17:51;;;;;;;19.43;13.13;;;7.60;99.90;;;;;;4866534;29;20238;-66
2022/04/23 04:20:21;;;;;;;18.00;13.50;;;7.60;99.90;;;;;;4869513;29;20314;-66
2022/04/23 04:22:50;;;;;;;17.13;13.47;;;7.60;99.90;;;;;;4869037;29;20239;-66
2022/04/23 04:25:19;;;;;;;19.27;13.40;;;7.60;99.90;;;;;;4868962;29;20239;-66
2022/04/23 04:27:48;;;;;;;19.00;13.53;;;7.50;99.90;;;;;;4867901;29;20230;-66
2022/04/23 04:30:16;;;;;;;18.03;13.43;;;7.50;99.90;;;;;;4867096;29;20290;-66
2022/04/23 04:32:50;;;;;;;15.73;13.27;;;7.50;99.90;;;;;;4868436;29;20336;-66
2022/04/23 04:35:19;;;;;;;15.87;14.13;;;7.50;99.90;;;;;;4863942;29;20269;-66
2022/04/23 04:37:47;;;;;;;18.40;14.13;;;7.50;99.90;;;;;;4864221;29;20249;-66
2022/04/23 04:40:15;;;;;;;19.73;15.63;;;7.50;99.90;;;;;;4876522;29;20294;-66
2022/04/23 04:42:45;;;;;;;18.17;14.40;;;7.50;99.90;;;;;;4877564;29;20609;-66
2022/04/23 04:45:13;;;;;;;19.27;14.63;;;7.60;99.90;;;;;;4866473;29;20250;-66
2022/04/23 04:47:42;;;;;;;16.77;13.70;;;7.60;99.90;;;;;;4869511;29;20593;-66
2022/04/23 04:50:10;;;;;;;22.17;15.93;;;7.60;99.90;;;;;;4873657;29;20280;-66
2022/04/23 04:52:39;;;;;;;18.53;15.33;;;7.60;99.90;;;;;;4877430;29;20245;-66
2022/04/23 04:55:08;;;;;;;20.13;14.63;;;7.60;99.90;;;;;;4862763;29;20295;-66
2022/04/23 04:57:36;;;;;;;20.57;15.17;;;7.70;99.90;;;;;;4858781;29;20243;-66
2022/04/23 05:00:07;;;;;;;22.87;15.33;;;7.80;99.90;;;;;;4876261;29;20242;-66
2022/04/23 05:02:36;;;;;;;20.63;15.37;;;7.80;99.90;;;;;;4877352;29;20249;-66
2022/04/23 05:05:05;;;;;;;21.37;16.03;;;7.80;99.90;;;;;;4862718;29;20238;-66
2022/04/23 05:07:33;;;;;;;21.07;16.40;;;7.90;99.90;;;;;;4859021;29;20266;-66
2022/04/23 05:10:01;;;;;;;22.93;16.30;;;7.90;99.90;;;;;;4875051;29;20602;-66
2022/04/23 05:12:30;;;;;;;20.67;16.07;;;8.00;99.90;;;;;;4866709;29;20294;-66
2022/04/23 05:14:58;;;;;;;21.00;15.43;;;8.00;99.90;;;;;;4869162;29;20238;-66
2022/04/23 05:17:28;;;;;;;21.03;16.43;;;8.00;99.90;;;;;;4872623;29;20257;-66
2022/04/23 05:19:56;;;;;;;20.63;15.63;;;8.10;99.90;;;;;;4866512;29;20242;-66
2022/04/23 05:22:25;;;;;;;19.37;16.20;;;8.20;99.90;;;;;;4865208;29;20242;-66
2022/04/23 05:24:53;;;;;;;21.63;16.23;;;8.30;99.90;;;;;;4867582;29;20654;-66
2022/04/23 05:27:24;;;;;;;20.27;15.67;;;8.40;99.90;;;;;;4866766;29;20234;-66
2022/04/23 05:29:53;;;;;;;20.23;16.50;;;8.60;99.90;;;;;;4872004;29;20677;-66
2022/04/23 05:32:21;;;;;;;21.43;16.23;;;8.60;99.90;;;;;;4860431;29;20239;-66
2022/04/23 05:34:56;;;;;;;19.47;16.13;;;8.70;99.90;;;;;;4860794;29;20250;-66
2022/04/23 05:37:24;;;;;;;21.33;15.67;;;8.80;99.90;;;;;;4858484;29;20326;-66
2022/04/23 05:39:52;;;;;;;20.93;15.53;;;8.90;99.90;;;;;;4867377;29;20795;-66
2022/04/23 05:42:20;;;;;;;18.33;14.87;;;9.00;99.90;;;;;;4861363;29;20320;-66
2022/04/23 05:44:48;;;;;;;19.63;16.07;;;9.20;99.90;;;;;;4863966;29;20272;-66
2022/04/23 05:47:16;;;;;;;18.37;16.40;;;9.30;99.90;;;;;;4866296;29;20239;-66
2022/04/23 05:49:44;;;;;;;20.33;16.07;;;9.30;99.90;;;;;;4868435;29;20238;-66
2022/04/23 05:52:20;;;;;;;21.50;16.23;;;9.50;99.90;;;;;;4874540;29;20635;-66
2022/04/23 05:54:48;;;;;;;20.17;15.33;;;9.50;99.90;;;;;;4867399;29;20296;-66
2022/04/23 05:57:16;;;;;;;19.73;15.53;;;9.70;99.90;;;;;;4864783;29;20633;-66
2022/04/23 05:59:44;;;;;;;19.60;15.67;;;9.80;99.90;;;;;;4873293;29;20241;-66
2022/04/23 06:02:13;;;;;;;19.47;15.57;;;9.60;99.90;;;;;;4880381;29;20294;-66
2022/04/23 06:04:45;;;;;;;18.07;15.43;;;9.80;99.90;;;;;;4869565;29;20716;-66
2022/04/23 06:07:13;;;;;;;20.53;16.33;;;9.90;99.90;;;;;;4861933;29;20734;-66
2022/04/23 06:09:43;;;;;;;17.37;15.53;;;9.90;99.90;;;;;;4867274;29;20329;-66
2022/04/23 06:12:11;;;;;;;19.87;15.63;;;10.10;99.90;;;;;;4876588;29;20248;-66
2022/04/23 06:14:40;;;;;;;18.70;15.50;;;10.20;99.90;;;;;;4874122;29;20297;-66
2022/04/23 06:17:10;;;;;;;19.73;15.83;;;10.40;99.90;;;;;;4869366;29;20303;-66
2022/04/23 06:19:39;;;;;;;19.77;15.17;;;10.60;99.90;;;;;;4869128;29;20242;-66
2022/04/23 06:22:07;;;;;;;17.73;15.37;;;10.80;99.90;;;;;;4876050;29;20247;-66
2022/04/23 06:24:36;;;;;;;17.23;14.83;;;10.90;99.90;;;;;;4875961;29;20235;-66
2022/04/23 06:27:06;;;;;;;18.47;15.43;;;11.00;99.90;;;;;;4865869;29;20244;-66
2022/04/23 06:29:38;;;;;;;18.93;15.53;;;11.20;99.90;;;;;;4866106;29;20318;-66
2022/04/23 06:32:08;;;;;;;18.70;15.23;;;11.40;99.90;;;;;;4870603;29;20249;-66
2022/04/23 06:34:37;;;;;;;18.60;15.03;;;11.40;99.90;;;;;;4868530;29;20299;-66
2022/04/23 06:37:06;;;;;;;17.90;15.57;;;11.50;99.90;;;;;;4869492;29;20296;-66
2022/04/23 06:39:35;;;;;;;16.23;14.27;;;11.60;99.90;;;;;;4871148;29;20236;-66
2022/04/23 06:42:03;;;;;;;19.33;14.33;;;11.70;99.90;;;;;;4870594;29;20250;-66
2022/04/23 06:44:33;;;;;;;17.97;14.13;;;11.80;99.90;;;;;;4871239;29;20244;-66
2022/04/23 06:47:02;;;;;;;16.67;14.37;;;11.90;99.90;;;;;;4870526;29;20248;-65
2022/04/23 06:49:31;;;;;;;16.20;14.13;;;11.90;99.90;;;;;;4870820;29;20843;-66
2022/04/23 06:51:59;;;;;;;19.10;14.63;;;12.00;99.90;;;;;;4856516;29;20271;-66
2022/04/23 06:54:27;;;;;;;15.40;13.80;;;11.90;99.90;;;;;;4855191;29;20265;-66
2022/04/23 06:56:55;;;;;;;16.53;14.23;;;12.10;99.90;;;;;;4869027;29;20651;-66
2022/04/23 06:59:23;;;;;;;16.00;14.30;;;12.20;99.90;;;;;;4861215;29;20262;-66
2022/04/23 07:01:53;;;;;;;15.43;13.77;;;12.20;99.90;;;;;;4850268;29;20686;-66
2022/04/23 07:04:21;;;;;;;15.50;13.77;;;12.30;99.90;;;;;;4846531;29;20742;-66
2022/04/23 07:06:50;;;;;;;16.77;14.77;;;12.60;99.90;;;;;;4860674;29;20272;-66
2022/04/23 07:09:18;;;;;;;15.97;14.07;;;12.60;99.90;;;;;;4860918;29;20237;-66
2022/04/23 07:11:47;;;;;;;13.87;12.30;;;12.90;99.90;;;;;;4854850;29;20623;-66
2022/04/23 07:14:15;;;;;;;14.27;12.70;;;13.10;99.90;;;;;;4847071;29;20246;-66
2022/04/23 07:16:43;;;;;;;12.97;11.53;;;13.40;99.90;;;;;;4855177;29;20248;-66
2022/04/23 07:19:13;;;;;;;12.70;11.40;;;13.50;99.90;;;;;;4849865;29;20584;-66
2022/04/23 07:21:41;;;;;;;13.03;11.67;;;13.60;99.90;;;;;;4850317;29;20251;-66
2022/04/23 07:24:11;;;;;;;12.60;11.30;;;13.70;99.90;;;;;;4855701;29;20242;-66
2022/04/23 07:26:40;;;;;;;13.07;10.23;;;13.70;99.90;;;;;;4856938;29;20245;-66
2022/04/23 07:29:10;;;;;;;11.90;10.00;;;13.90;99.90;;;;;;4851804;29;20294;-66
2022/04/23 07:31:39;;;;;;;10.90;9.80;;;14.20;99.90;;;;;;4846550;29;20734;-66
2022/04/23 07:39:39;;;;;;;9.83;8.90;;;14.30;99.90;;;;;;4848474;29;20234;-66
2022/04/23 07:42:08;;;;;;;9.87;8.73;;;14.40;99.90;;;;;;4857550;29;20297;-66
2022/04/23 07:44:37;;;;;;;10.13;9.00;;;14.50;99.90;;;;;;4851162;29;20328;-66
2022/04/23 07:47:09;;;;;;;9.63;8.63;;;14.50;99.90;;;;;;4854520;29;20245;-66
2022/04/23 07:49:37;;;;;;;9.80;8.80;;;14.40;99.90;;;;;;4870283;29;20234;-66
2022/04/23 07:52:08;;;;;;;8.73;7.83;;;14.70;99.90;;;;;;4863921;29;20241;-66
2022/04/23 07:54:38;;;;;;;7.97;7.17;;;15.00;99.90;;;;;;4873916;29;20239;-66
2022/04/23 07:57:08;;;;;;;8.13;7.33;;;14.90;99.90;;;;;;4867658;29;20333;-66
2022/04/23 07:59:40;;;;;;;8.83;6.77;;;14.60;99.90;;;;;;4867358;29;20235;-66
2022/04/23 08:02:08;;;;;;;7.43;6.73;;;14.60;99.90;;;;;;4874770;29;20333;-66
2022/04/23 08:04:37;;;;;;;7.20;6.50;;;14.80;99.90;;;;;;4867199;29;20237;-67
2022/04/23 08:07:07;;;;;;;7.00;6.30;;;15.00;99.90;;;;;;4845643;29;20265;-66
2022/04/23 08:09:39;;;;;;;7.10;6.40;;;15.30;99.90;;;;;;4854673;29;20239;-67
2022/04/23 08:12:09;;;;;;;6.50;5.77;;;15.40;99.90;;;;;;4852935;29;20246;-69
2022/04/23 08:14:38;;;;;;;6.53;5.43;;;15.40;99.90;;;;;;4847549;29;20730;-63
2022/04/23 08:17:06;;;;;;;6.20;5.57;;;15.30;99.90;;;;;;4858654;29;20330;-62
2022/04/23 08:19:34;;;;;;;5.83;5.33;;;15.30;99.90;;;;;;4860340;29;20270;-63
2022/04/23 08:22:04;;;;;;;15.37;6.87;;;15.50;99.90;;;;;;4855691;29;20275;-63
2022/04/23 08:24:33;;;;;;;10.83;5.23;;;15.50;99.90;;;;;;4851455;29;20247;-63
2022/04/23 08:27:01;;;;;;;6.00;5.10;;;15.30;99.90;;;;;;4864388;29;20242;-63
2022/04/23 08:32:15;;;;;;;6.93;4.97;;;15.50;99.90;;;;;;4850365;29;20298;-63
2022/04/23 08:34:43;;;;;;;7.50;5.20;;;15.60;99.90;;;;;;4851999;29;20239;-65
2022/04/23 08:37:12;;;;;;;6.50;5.05;;;15.80;99.90;;;;;;4857664;29;20452;-62
2022/04/23 08:39:42;;;;;;;5.17;4.67;;;15.70;99.90;;;;;;4857142;29;20235;-63
2022/04/23 08:42:10;;;;;;;4.80;4.33;;;15.70;99.90;;;;;;4858768;29;20703;-64
2022/04/23 08:44:40;;;;;;;5.53;4.80;;;16.00;99.90;;;;;;4851665;29;21060;-66
2022/04/23 08:47:09;;;;;;;11.27;4.80;;;16.20;99.90;;;;;;4855177;29;20770;-65
2022/04/23 08:49:41;;;;;;;8.80;4.57;;;16.10;99.90;;;;;;4866863;29;20455;-62
2022/04/23 08:52:13;;;;;;;4.87;4.47;;;16.30;99.90;;;;;;4862565;29;20581;-62
2022/04/23 08:54:43;;;;;;;4.80;4.30;;;16.60;99.90;;;;;;4848319;29;20266;-63
2022/04/23 08:57:11;;;;;;;4.43;4.03;;;16.70;99.90;;;;;;4860694;29;20242;-64
2022/04/23 08:59:45;;;;;;;5.13;4.37;;;16.90;99.90;;;;;;4856659;29;20238;-64
2022/04/23 09:02:14;;;;;;;6.53;4.50;;;16.80;99.90;;;;;;4858475;29;20246;-63
2022/04/23 09:04:43;;;;;;;4.70;4.30;;;17.00;99.90;;;;;;4852130;29;20296;-62
2022/04/23 09:07:21;;;;;;;5.00;4.30;;;17.00;99.90;;;;;;4851059;29;20246;-62
2022/04/23 09:09:52;;;;;;;4.60;4.20;;;16.90;99.90;;;;;;4858110;29;20250;-62
2022/04/23 09:12:22;;;;;;;4.60;4.20;;;16.60;99.90;;;;;;4856633;29;20246;-63
2022/04/23 09:14:51;;;;;;;4.10;3.47;;;16.40;99.90;;;;;;4851655;29;20262;-62
2022/04/23 09:25:44;;;;;;;3.80;3.50;;;16.80;99.90;;;;;;4858520;29;20311;-62
2022/04/23 09:28:20;;;;;;;4.53;4.13;;;17.10;99.90;;;;;;4861405;29;20328;-64
2022/04/23 09:30:50;;;;;;;4.30;3.90;;;16.90;99.90;;;;;;4849939;29;20230;-62
2022/04/23 09:33:21;;;;;;;5.07;4.17;;;17.20;99.90;;;;;;4857972;29;20234;-62
2022/04/23 09:35:56;;;;;;;4.17;3.83;;;17.30;99.90;;;;;;4839984;29;20274;-63
2022/04/23 09:38:25;;;;;;;4.90;3.87;;;17.10;99.90;;;;;;4839976;29;20287;-62
2022/04/23 09:40:56;;;;;;;4.33;3.50;;;16.80;99.90;;;;;;4864745;29;20237;-63
2022/04/23 09:43:26;;;;;;;4.90;3.50;;;16.80;99.90;;;;;;4855709;29;20242;-63
2022/04/23 09:46:03;;;;;;;3.67;3.37;;;16.70;99.90;;;;;;4869097;29;20245;-62
2022/04/23 09:48:38;;;;;;;4.20;3.80;;;16.70;99.90;;;;;;4858753;29;20234;-62
2022/04/23 09:51:21;;;;;;;5.33;3.70;;;16.90;99.60;;;;;;4866379;29;20763;-62
2022/04/23 09:53:53;;;;;;;3.87;3.57;;;16.90;99.40;;;;;;4868438;29;20248;-63
2022/04/23 09:56:25;;;;;;;4.20;3.80;;;16.80;99.00;;;;;;4861797;29;20246;-64
2022/04/23 09:58:54;;;;;;;4.10;3.80;;;17.00;99.00;;;;;;4870318;29;20323;-61
2022/04/23 10:01:23;;;;;;;4.10;3.40;;;17.10;98.60;;;;;;4870284;29;20234;-62
2022/04/23 10:03:53;;;;;;;4.03;3.63;;;17.20;98.00;;;;;;4874914;29;20392;-61
2022/04/23 10:06:22;;;;;;;4.00;3.70;;;17.30;98.40;;;;;;4868860;29;20640;-61
2022/04/23 10:08:55;;;;;;;4.40;4.00;;;17.50;98.70;;;;;;4873021;29;20790;-61
2022/04/23 10:11:27;;;;;;;4.93;3.87;;;17.50;97.90;;;;;;4873373;29;20238;-61
2022/04/23 10:13:59;;;;;;;6.53;4.07;;;17.40;98.00;;;;;;4869215;29;20286;-61
2022/04/23 10:16:31;;;;;;;4.20;3.80;;;17.40;98.00;;;;;;4852911;29;20239;-61
2022/04/23 10:19:00;;;;;;;4.20;3.80;;;17.70;97.40;;;;;;4858821;29;20247;-61
2022/04/23 10:21:40;;;;;;;4.43;4.10;;;17.80;97.80;;;;;;4870820;29;20264;-61
2022/04/23 10:24:14;;;;;;;4.20;3.80;;;17.80;97.10;;;;;;4859700;29;20718;-63
2022/04/23 10:26:48;;;;;;;5.20;4.10;;;17.70;97.20;;;;;;4854740;29;20298;-61
2022/04/23 10:29:21;;;;;;;4.50;4.10;;;17.60;97.30;;;;;;4854538;29;20706;-61
2022/04/23 10:32:20;;;;;;;4.43;4.03;;;17.90;97.10;;;;;;4855676;29;20319;-62
2022/04/23 10:34:49;;;;;;;4.57;4.20;;;18.30;97.30;;;;;;4851629;29;20279;-61
2022/04/23 10:37:18;;;;;;;4.63;4.00;;;18.80;97.20;;;;;;4870368;29;20300;-61
2022/04/23 10:40:07;;;;;;;4.77;4.37;;;19.10;96.90;;;;;;4870476;29;20263;-61
2022/04/23 10:42:38;;;;;;;5.17;4.60;;;18.70;95.80;;;;;;4871376;29;20295;-61
2022/04/23 10:45:07;;;;;;;4.97;4.17;;;18.50;96.70;;;;;;4872837;29;20723;-61
2022/04/23 10:47:36;;;;;;;5.37;4.77;;;18.60;97.00;;;;;;4859602;29;20233;-61
2022/04/23 10:50:32;;;;;;;4.67;4.20;;;18.70;96.80;;;;;;4855686;29;20248;-61
2022/04/23 10:53:03;;;;;;;6.40;4.40;;;18.60;95.90;;;;;;4863787;29;20251;-61
2022/04/23 10:55:32;;;;;;;5.13;4.47;;;18.50;95.90;;;;;;4863940;29;20709;-61
2022/04/23 10:58:22;;;;;;;5.20;3.97;;;18.50;95.20;;;;;;4851611;29;20291;-61
2022/04/23 11:00:51;;;;;;;4.97;4.57;;;18.40;95.80;;;;;;4861055;29;20622;-61
2022/04/23 11:03:27;;;;;;;5.83;4.47;;;18.30;95.60;;;;;;4851139;29;20264;-61
2022/04/23 11:14:48;;;;;;;4.30;3.90;;;18.70;95.60;;;;;;4851073;29;20256;-61
2022/04/23 11:17:24;;;;;;;5.43;3.87;;;18.40;94.80;;;;;;4875801;29;20251;-61
2022/04/23 11:19:53;;;;;;;4.03;3.57;;;18.60;95.30;;;;;;4875289;29;20375;-61
2022/04/23 11:22:22;;;;;;;4.50;3.90;;;18.70;95.20;;;;;;4862915;29;20282;-60
2022/04/23 11:24:51;;;;;;;4.00;3.70;;;18.90;94.60;;;;;;4871591;29;20258;-61
2022/04/23 11:27:25;;;;;;;4.00;3.60;;;18.70;95.10;;;;;;4872052;29;20239;-61
2022/04/23 11:29:55;;;;;;;4.10;3.70;;;18.80;94.30;;;;;;4871811;29;20760;-61
2022/04/23 11:32:27;;;;;;;4.47;3.77;;;18.50;93.90;;;;;;4871567;29;20235;-62
2022/04/23 11:34:56;;;;;;;5.03;3.70;;;18.40;93.70;;;;;;4872093;29;20705;-61
2022/04/23 11:37:31;;;;;;;4.23;3.83;;;18.30;93.50;;;;;;4870627;29;20247;-61
2022/04/23 11:40:07;;;;;;;5.17;3.60;;;18.60;94.10;;;;;;4866779;29;20644;-61
2022/04/23 11:42:39;;;;;;;4.00;3.70;;;19.10;94.10;;;;;;4869931;29;20256;-61
2022/04/23 11:45:11;;;;;;;4.77;3.77;;;19.20;93.80;;;;;;4870823;29;20327;-61
2022/04/23 11:47:39;;;;;;;4.00;3.70;;;19.30;92.60;;;;;;4871197;29;20247;-61
2022/04/23 11:50:09;;;;;;;4.40;4.00;;;19.00;93.30;;;;;;4870103;29;20276;-61
2022/04/23 11:52:37;;;;;;;5.70;4.00;;;19.30;93.10;;;;;;4868892;29;20301;-61
2022/04/23 11:55:08;;;;;;;4.83;4.30;;;18.90;92.80;;;;;;4868822;29;20233;-61
2022/04/23 11:57:37;;;;;;;3.97;3.67;;;18.80;93.20;;;;;;4869131;29;20240;-61
2022/04/23 12:00:06;;;;;;;5.70;4.40;;;18.70;93.70;;;;;;4871448;29;20240;-62
2022/04/23 12:02:36;;;;;;;4.10;3.80;;;18.60;94.00;;;;;;4870160;29;20276;-63
2022/04/23 12:05:05;;;;;;;5.07;4.63;;;18.70;94.00;;;;;;4874179;29;20248;-63
2022/04/23 12:07:34;;;;;;;4.40;4.10;;;18.60;94.10;;;;;;4860725;29;20328;-62
2022/04/23 12:10:03;;;;;;;5.27;3.80;;;18.70;94.30;;;;;;4864929;29;20328;-61
2022/04/23 12:12:33;;;;;;;4.90;4.43;;;18.80;95.10;;;;;;4867033;29;20783;-61
2022/04/23 12:15:04;;;;;;;4.53;4.13;;;18.60;95.00;;;;;;4851230;29;20243;-61
2022/04/23 12:17:43;;;;;;;4.67;4.37;;;18.80;95.20;;;;;;4860245;29;20714;-63
2022/04/23 12:20:14;;;;;;;4.80;4.13;;;18.70;94.40;;;;;;4851887;29;20386;-61
2022/04/23 12:22:55;;;;;;;5.03;4.63;;;18.70;94.30;;;;;;4859557;29;20252;-61
2022/04/23 12:25:25;;;;;;;6.27;4.63;;;18.40;94.70;;;;;;4859945;29;20649;-63
2022/04/23 12:27:57;;;;;;;6.23;4.50;;;18.30;93.90;;;;;;4850772;29;20254;-61
2022/04/23 12:41:56;;;;;;;4.50;4.10;;;18.20;94.80;;;;;;4864188;29;21730;-62
2022/04/23 12:44:32;;;;;;;4.97;4.13;;;18.20;94.80;;;;;;4861525;29;20296;-61
2022/04/23 12:47:01;;;;;;;4.27;3.87;;;18.50;94.50;;;;;;4876521;29;20247;-61
2022/04/23 12:49:47;;;;;;;4.47;3.93;;;18.30;93.80;;;;;;4869692;29;20245;-61
2022/04/23 12:52:20;;;;;;;4.30;3.90;;;17.90;94.10;;;;;;4874187;29;20238;-61
2022/04/23 12:55:12;;;;;;;4.93;4.10;;;18.10;94.50;;;;;;4866664;29;20655;-62
2022/04/23 12:57:40;;;;;;;4.63;4.23;;;18.00;94.90;;;;;;4858923;29;20691;-61
2022/04/23 13:00:11;;;;;;;5.63;4.33;;;18.10;94.30;;;;;;4866170;29;20672;-61
2022/04/23 13:02:40;;;;;;;4.50;3.87;;;18.00;93.90;;;;;;4867873;29;20245;-61
2022/04/23 13:05:11;;;;;;;4.93;4.47;;;18.00;94.60;;;;;;4866057;29;20322;-62
2022/04/23 13:10:27;;;;;;;6.17;4.73;;;18.10;94.40;;;;;;4867788;29;20727;-61
2022/04/23 13:12:55;;;;;;;5.60;5.10;;;17.80;93.90;;;;;;4874336;29;20341;-61
2022/04/23 13:15:24;;;;;;;5.87;5.27;;;17.80;94.50;;;;;;4876806;29;20242;-62
2022/04/23 13:17:52;;;;;;;5.63;4.53;;;17.90;94.90;;;;;;4876897;29;20239;-61
2022/04/23 13:20:20;;;;;;;5.47;4.97;;;17.90;94.80;;;;;;4868476;29;20625;-61
2022/04/23 13:22:50;;;;;;;5.97;4.70;;;17.90;94.50;;;;;;4861617;29;20715;-62
2022/04/23 13:25:23;;;;;;;5.43;5.03;;;17.80;94.70;;;;;;4869041;29;20234;-61
2022/04/23 13:27:51;;;;;;;5.93;5.23;;;17.70;95.00;;;;;;4859536;29;20254;-61
2022/04/23 13:30:19;;;;;;;4.93;3.87;;;17.50;94.60;;;;;;4869573;29;20610;-62
2022/04/23 13:32:48;;;;;;;7.70;4.70;;;17.70;95.50;;;;;;4874228;29;20242;-61
2022/04/23 13:35:16;;;;;;;5.33;4.83;;;17.90;95.30;;;;;;4873330;29;20737;-62
2022/04/23 13:37:45;;;;;;;5.37;4.97;;;17.90;94.80;;;;;;4858489;29;20270;-61